Terminal Aerodrome Forecast
Issued by NWS

Home | Current Version | Previous Version | Text Only | Print | Product List | Glossary On
Versions: 1 2 3 4 5 6 7 8 9 10 11 12 13 14 15 16 17 18 19
000
FTAK31 PAJN 161201 AAA
TAFAKT
TAF AMD
PAKT 161201Z 1612/1712 14024G34KT 6SM -RA BR SCT008 BKN015 OVC022
      WS020/18050KT
      TEMPO 1612/1615 4SM -RA BR BKN008
     FM161800 14020G30KT P6SM -SHRA SCT015 OVC022 WS020/18050KT
     FM170000 15014G22KT P6SM -SHRA SCT015 OVC025
     FM170600 15007KT P6SM VCSH SCT015 OVC025
      AMD LTD TO CLD VIS AND WIND 1612/1615=

USA.gov is the U.S. government's official web portal to all federal, state and local government web resources and services.